createdAt,value
2019-06-07T00:02:32.615Z,98439.69
2019-06-07T00:05:09.802Z,98442.76
2019-06-07T00:07:43.540Z,98440.52
2019-06-07T00:10:34.979Z,98442.59
2019-06-07T00:12:53.476Z,98447.97
2019-06-07T00:15:29.055Z,98449.56
2019-06-07T00:18:03.890Z,98453.66
2019-06-07T00:20:38.273Z,98459.95
2019-06-07T00:23:15.878Z,98458.58
2019-06-07T00:25:48.514Z,98458.03
2019-06-07T00:28:22.528Z,98460.64
2019-06-07T00:30:56.709Z,98472.23
2019-06-07T00:33:30.778Z,98473.17
2019-06-07T00:36:05.118Z,98473.94
2019-06-07T00:38:39.206Z,98479.64
2019-06-07T00:41:15.012Z,98475.48
2019-06-07T00:43:49.430Z,98477.40
2019-06-07T00:46:25.425Z,98480.12
2019-06-07T00:48:59.728Z,98476.32
2019-06-07T00:51:49.487Z,98484.75
2019-06-07T00:54:12.309Z,98487.22
2019-06-07T00:56:46.578Z,98490.92
2019-06-07T00:59:28.318Z,98491.16
2019-06-07T01:01:57.050Z,98491.09
2019-06-07T01:04:31.539Z,98489.73
2019-06-07T01:07:05.766Z,98491.09
2019-06-07T01:09:40.078Z,98488.36
2019-06-07T01:12:14.796Z,98497.67
2019-06-07T01:14:49.899Z,98500.63
2019-06-07T01:17:43.761Z,98498.66
2019-06-07T01:20:06.540Z,98493.02
2019-06-07T01:22:40.685Z,98499.20
2019-06-07T01:25:15.757Z,98499.66
2019-06-07T01:27:50.329Z,98517.16
2019-06-07T01:30:26.660Z,98519.44
2019-06-07T01:33:01.376Z,98521.91
2019-06-07T01:35:35.369Z,98528.23
2019-06-07T01:38:09.719Z,98527.05
2019-06-07T01:40:43.844Z,98527.69
2019-06-07T01:43:19.560Z,98537.37
2019-06-07T01:45:54.153Z,98538.45
2019-06-07T01:48:47.996Z,98537.34
2019-06-07T01:51:05.240Z,98539.78
2019-06-07T01:53:39.631Z,98539.52
2019-06-07T01:56:13.881Z,98531.31
2019-06-07T01:58:48.202Z,98534.58
2019-06-07T02:01:23.937Z,98538.41
2019-06-07T02:03:58.379Z,98540.08
2019-06-07T02:06:32.644Z,98538.94
2019-06-07T02:09:08.164Z,98543.59
2019-06-07T02:11:42.415Z,98545.12
2019-06-07T02:14:16.788Z,98556.27
2019-06-07T02:16:50.769Z,98559.34
2019-06-07T02:19:27.461Z,98559.34
2019-06-07T02:22:01.131Z,98567.83
2019-06-07T02:24:36.458Z,98569.19
2019-06-07T02:27:10.762Z,98572.19
2019-06-07T02:29:45.413Z,98573.95
2019-06-07T02:32:19.374Z,98572.39
2019-06-07T02:34:53.786Z,98573.33
2019-06-07T02:37:32.415Z,98585.03
2019-06-07T02:40:04.309Z,98587.30
2019-06-07T02:42:42.738Z,98584.63
2019-06-07T02:45:14.832Z,98583.45
2019-06-07T02:47:49.467Z,98591.33
2019-06-07T02:50:26.251Z,98589.95
2019-06-07T02:53:00.194Z,98590.44
2019-06-07T02:56:25.947Z,98591.48
2019-06-07T02:58:11.997Z,98592.63
2019-06-07T03:01:06.522Z,98585.49
2019-06-07T03:03:24.688Z,98591.25
2019-06-07T03:05:59.529Z,98595.11
2019-06-07T03:08:36.735Z,98587.69
2019-06-07T03:11:11.870Z,98595.20
2019-06-07T03:13:50.194Z,98602.73
2019-06-07T03:16:31.317Z,98604.13
2019-06-07T03:19:19.166Z,98605.33
2019-06-07T03:21:55.706Z,98599.97
2019-06-07T03:24:33.690Z,98609.68
2019-06-07T03:29:43.590Z,98608.33
2019-06-07T03:32:19.159Z,98613.14
2019-06-07T03:34:53.297Z,98607.17
2019-06-07T03:37:29.954Z,98613.26
2019-06-07T03:40:04.366Z,98616.42
2019-06-07T03:42:40.133Z,98612.59
2019-06-07T03:45:14.681Z,98613.95
2019-06-07T03:47:48.662Z,98610.97
2019-06-07T03:50:22.795Z,98597.93
2019-06-07T03:52:57.017Z,98593.32
2019-06-07T03:55:34.874Z,98589.28
2019-06-07T04:00:43.474Z,98580.84
2019-06-07T04:03:32.910Z,98589.03
2019-06-07T04:05:54.341Z,98585.75
2019-06-07T04:08:30.869Z,98589.05
2019-06-07T04:11:05.829Z,98583.27
2019-06-07T04:13:42.943Z,98583.06
2019-06-07T04:16:15.795Z,98582.41
2019-06-07T04:18:49.986Z,98578.65
2019-06-07T04:21:24.038Z,98583.06
2019-06-07T04:23:58.232Z,98587.22
2019-06-07T04:26:34.503Z,98589.98
2019-06-07T04:29:32.184Z,98587.78
2019-06-07T04:31:44.348Z,98586.71
2019-06-07T04:34:18.543Z,98585.08
2019-06-07T04:36:59.036Z,98583.16
2019-06-07T04:39:34.037Z,98583.70
2019-06-07T04:42:07.238Z,98573.26
2019-06-07T04:44:42.827Z,98573.27
2019-06-07T04:47:20.799Z,98576.27
2019-06-07T04:49:55.152Z,98566.91
2019-06-07T04:52:30.468Z,98567.47
2019-06-07T04:55:05.282Z,98566.06
2019-06-07T04:57:42.714Z,98567.72
2019-06-07T05:00:46.579Z,98563.06
2019-06-07T05:02:51.278Z,98565.53
2019-06-07T05:05:25.272Z,98568.41
2019-06-07T05:08:07.259Z,98567.79
2019-06-07T05:10:38.796Z,98560.63
2019-06-07T05:13:12.835Z,98555.19
2019-06-07T05:15:46.797Z,98554.95
2019-06-07T05:18:21.022Z,98552.20
2019-06-07T05:20:55.216Z,98548.89
2019-06-07T05:24:03.579Z,98546.42
2019-06-07T05:26:06.423Z,98544.41
2019-06-07T05:28:42.833Z,98539.19
2019-06-07T05:31:16.622Z,98540.28
2019-06-07T05:33:50.753Z,98539.47
2019-06-07T05:36:24.877Z,98536.41
2019-06-07T05:38:58.915Z,98533.12
2019-06-07T05:41:34.157Z,98530.34
2019-06-07T05:44:13.016Z,98530.88
2019-06-07T05:46:47.156Z,98526.47
2019-06-07T05:49:20.920Z,98525.91
2019-06-07T05:51:54.813Z,98514.10
2019-06-07T05:54:29.237Z,98522.58
2019-06-07T05:57:03.502Z,98518.44
2019-06-07T05:59:41.075Z,98523.13
2019-06-07T06:02:22.264Z,98521.18
2019-06-07T06:04:49.968Z,98511.83
2019-06-07T06:07:24.034Z,98515.59
2019-06-07T06:09:58.519Z,98518.00
2019-06-07T06:12:38.212Z,98519.59
2019-06-07T06:15:09.766Z,98524.83
2019-06-07T06:17:47.958Z,98515.48
2019-06-07T06:20:20.181Z,98522.91
2019-06-07T06:22:54.233Z,98522.06
2019-06-07T06:25:32.347Z,98520.10
2019-06-07T06:28:11.573Z,98511.02
2019-06-07T06:30:41.815Z,98502.42
2019-06-07T06:33:33.182Z,98494.21
2019-06-07T06:35:52.770Z,98500.25
2019-06-07T06:38:26.917Z,98491.70
2019-06-07T06:41:15.082Z,98494.16
2019-06-07T06:47:36.007Z,98487.00
2019-06-07T06:50:11.775Z,98483.94
2019-06-07T06:52:48.495Z,98483.94
2019-06-07T06:55:21.889Z,98482.55
2019-06-07T06:57:56.652Z,98480.58
2019-06-07T07:01:04.092Z,98480.58
2019-06-07T07:06:24.611Z,98476.14
2019-06-07T07:08:40.619Z,98464.04
2019-06-07T07:11:14.676Z,98473.07
2019-06-07T07:13:54.218Z,98470.02
2019-06-07T07:16:28.154Z,98455.72
2019-06-07T07:19:02.266Z,98469.41
2019-06-07T07:21:36.539Z,98464.98
2019-06-07T07:24:21.017Z,98461.17
2019-06-07T07:26:48.712Z,98454.52
2019-06-07T07:29:23.176Z,98459.86
2019-06-07T07:31:57.530Z,98458.21
2019-06-07T07:34:36.587Z,98449.72
2019-06-07T07:37:07.837Z,98457.38
2019-06-07T07:39:42.093Z,98447.46
2019-06-07T07:42:21.483Z,98443.57
2019-06-07T07:44:56.666Z,98439.98
2019-06-07T07:47:30.938Z,98440.20
2019-06-07T07:50:05.071Z,98431.08
2019-06-07T07:52:39.416Z,98430.75
2019-06-07T07:55:13.735Z,98429.92
2019-06-07T07:57:49.460Z,98427.16
2019-06-07T08:00:49.984Z,98416.65
2019-06-07T08:03:04.348Z,98417.19
2019-06-07T08:05:42.809Z,98413.56
2019-06-07T08:08:13.444Z,98415.73
2019-06-07T08:10:50.417Z,98408.27
2019-06-07T08:13:26.988Z,98404.64
2019-06-07T08:16:08.298Z,98397.19
2019-06-07T08:18:36.714Z,98398.32
2019-06-07T08:21:24.855Z,98394.42
2019-06-07T08:23:48.225Z,98390.80
2019-06-07T08:26:23.784Z,98393.80
2019-06-07T08:29:02.321Z,98389.94
2019-06-07T08:31:34.345Z,98385.80
2019-06-07T08:34:08.830Z,98378.06
2019-06-07T08:36:43.403Z,98383.28
2019-06-07T08:39:17.560Z,98374.70
2019-06-07T08:42:00.545Z,98376.27
2019-06-07T08:44:27.594Z,98370.64
2019-06-07T08:47:18.901Z,98372.45
2019-06-07T08:49:38.883Z,98360.52
2019-06-07T08:52:13.103Z,98356.50
2019-06-07T08:54:47.925Z,98357.34
2019-06-07T08:57:22.508Z,98357.05
2019-06-07T09:00:05.943Z,98350.19
2019-06-07T09:02:32.712Z,98355.30
2019-06-07T09:05:13.353Z,98345.39
2019-06-07T09:08:07.158Z,98346.98
2019-06-07T09:10:25.967Z,98344.75
2019-06-07T09:13:07.505Z,98347.74
2019-06-07T09:15:37.125Z,98335.66
2019-06-07T09:20:50.085Z,98329.00
2019-06-07T09:23:24.254Z,98332.55
2019-06-07T09:26:06.469Z,98325.44
2019-06-07T09:28:35.721Z,98319.94
2019-06-07T09:31:12.568Z,98319.10
2019-06-07T09:33:47.054Z,98313.39
2019-06-07T09:36:21.315Z,98311.49
2019-06-07T09:38:58.693Z,98301.37
2019-06-07T09:41:46.951Z,98307.34
2019-06-07T09:44:21.468Z,98305.70
2019-06-07T09:46:44.915Z,98298.02
2019-06-07T09:49:31.531Z,98285.95
2019-06-07T09:51:55.762Z,98282.41
2019-06-07T09:55:03.713Z,98287.06
2019-06-07T09:57:16.443Z,98286.22
2019-06-07T09:59:42.769Z,98278.02
2019-06-07T10:02:16.781Z,98272.25
2019-06-07T10:04:51.188Z,98269.77
2019-06-07T10:07:31.928Z,98267.05
2019-06-07T10:10:22.871Z,98259.16
2019-06-07T10:12:37.354Z,98258.06
2019-06-07T10:15:12.023Z,98255.87
2019-06-07T10:17:45.967Z,98256.16
2019-06-07T10:20:20.607Z,98259.73
2019-06-07T10:22:54.835Z,98243.03
2019-06-07T10:25:29.158Z,98247.42
2019-06-07T10:28:03.872Z,98246.85
2019-06-07T10:30:38.451Z,98234.00
2019-06-07T10:33:12.750Z,98238.09
2019-06-07T10:35:47.914Z,98230.41
2019-06-07T10:38:22.006Z,98225.50
2019-06-07T10:40:56.383Z,98223.57
2019-06-07T10:43:30.839Z,98214.55
2019-06-07T10:46:05.716Z,98215.64
2019-06-07T10:48:41.234Z,98212.67
2019-06-07T10:51:15.714Z,98214.83
2019-06-07T10:53:50.177Z,98212.36
2019-06-07T10:56:25.280Z,98220.03
2019-06-07T10:58:59.441Z,98210.44
2019-06-07T11:01:33.708Z,98214.02
2019-06-07T11:04:07.883Z,98216.20
2019-06-07T11:06:42.843Z,98215.64
2019-06-07T11:09:17.421Z,98216.41
2019-06-07T11:11:51.617Z,98210.64
2019-06-07T11:14:25.827Z,98214.20
2019-06-07T11:17:00.132Z,98203.81
2019-06-07T11:19:34.663Z,98196.98
2019-06-07T11:22:10.108Z,98208.03
2019-06-07T11:24:44.676Z,98194.05
2019-06-07T11:27:19.331Z,98195.41
2019-06-07T11:29:53.396Z,98201.91
2019-06-07T11:32:27.747Z,98200.48
2019-06-07T11:35:02.367Z,98202.39
2019-06-07T11:37:36.750Z,98198.27
2019-06-07T11:40:35.691Z,98196.60
2019-06-07T11:42:48.990Z,98199.38
2019-06-07T11:45:25.966Z,98191.44
2019-06-07T11:48:01.042Z,98191.44
2019-06-07T11:50:36.036Z,98203.52
2019-06-07T11:53:12.578Z,98196.98
2019-06-07T11:55:47.066Z,98190.69
2019-06-07T11:58:21.908Z,98186.87
2019-06-07T12:00:57.321Z,98186.61
2019-06-07T12:03:31.541Z,98184.68
2019-06-07T12:06:05.572Z,98185.51
2019-06-07T12:08:39.707Z,98194.50
2019-06-07T12:11:14.364Z,98185.77
2019-06-07T12:13:48.685Z,98186.61
2019-06-07T12:16:23.791Z,98189.61
2019-06-07T12:18:57.976Z,98185.22
2019-06-07T12:21:32.122Z,98195.34
2019-06-07T12:24:06.530Z,98192.34
2019-06-07T12:26:40.797Z,98187.15
2019-06-07T12:29:14.991Z,98190.44
2019-06-07T12:31:49.137Z,98195.08
2019-06-07T12:34:23.272Z,98195.67
2019-06-07T12:36:57.283Z,98194.25
2019-06-07T12:39:31.688Z,98199.18
2019-06-07T12:42:05.671Z,98207.17
2019-06-07T12:44:39.838Z,98202.03
2019-06-07T12:47:14.992Z,98204.50
2019-06-07T12:49:52.395Z,98213.44
2019-06-07T12:52:26.471Z,98208.44
2019-06-07T12:55:00.727Z,98214.13
2019-06-07T12:57:34.946Z,98222.09
2019-06-07T13:00:11.181Z,98215.29
2019-06-07T13:02:45.412Z,98217.49
2019-06-07T13:05:20.002Z,98220.84
2019-06-07T13:07:54.301Z,98223.68
2019-06-07T13:10:28.634Z,98225.40
2019-06-07T13:13:02.771Z,98229.41
2019-06-07T13:15:36.697Z,98235.00
2019-06-07T13:18:14.846Z,98229.71
2019-06-07T13:20:46.949Z,98235.63
2019-06-07T13:23:22.654Z,98238.00
2019-06-07T13:25:56.855Z,98244.08
2019-06-07T13:28:31.755Z,98249.52
2019-06-07T13:31:06.118Z,98249.13
2019-06-07T13:33:40.199Z,98257.83
2019-06-07T13:36:14.386Z,98254.20
2019-06-07T13:38:48.687Z,98261.14
2019-06-07T13:41:36.330Z,98262.39
2019-06-07T13:43:58.772Z,98271.41
2019-06-07T13:46:34.105Z,98271.41
2019-06-07T13:49:08.447Z,98270.97
2019-06-07T13:51:42.537Z,98270.97
2019-06-07T13:54:16.609Z,98276.63
2019-06-07T13:57:02.254Z,98277.70
2019-06-07T13:59:28.558Z,98278.73
2019-06-07T14:02:02.844Z,98292.14
2019-06-07T14:04:37.140Z,98293.58
2019-06-07T14:07:11.470Z,98292.88
2019-06-07T14:09:45.771Z,98296.23
2019-06-07T14:12:22.093Z,98298.99
2019-06-07T14:14:56.226Z,98301.95
2019-06-07T14:17:31.001Z,98304.67
2019-06-07T14:20:07.167Z,98303.44
2019-06-07T14:22:41.327Z,98303.13
2019-06-07T14:25:15.479Z,98304.38
2019-06-07T14:27:49.721Z,98311.13
2019-06-07T14:30:24.289Z,98305.67
2019-06-07T14:32:58.547Z,98308.19
2019-06-07T14:35:33.719Z,98313.46
2019-06-07T14:38:08.091Z,98318.73
2019-06-07T14:40:42.367Z,98317.09
2019-06-07T14:43:16.664Z,98319.56
2019-06-07T14:45:51.730Z,98328.64
2019-06-07T14:48:25.944Z,98324.52
2019-06-07T14:51:00.300Z,98327.53
2019-06-07T14:53:35.087Z,98334.42
2019-06-07T14:56:09.324Z,98338.26
2019-06-07T14:58:43.742Z,98347.36
2019-06-07T15:01:17.664Z,98353.11
2019-06-07T15:03:51.775Z,98355.56
2019-06-07T15:06:26.773Z,98355.84
2019-06-07T15:09:01.049Z,98358.86
2019-06-07T15:11:36.874Z,98362.43
2019-06-07T15:14:11.241Z,98367.31
2019-06-07T15:16:45.573Z,98375.66
2019-06-07T15:19:19.760Z,98378.78
2019-06-07T15:21:53.749Z,98380.83
2019-06-07T15:24:28.145Z,98378.45
2019-06-07T15:27:02.501Z,98383.03
2019-06-07T15:29:37.902Z,98385.62
2019-06-07T15:32:12.644Z,98390.13
2019-06-07T15:34:46.919Z,98393.48
2019-06-07T15:37:21.118Z,98394.05
2019-06-07T15:39:55.082Z,98392.17
2019-06-07T15:42:43.942Z,98389.72
2019-06-07T15:45:05.840Z,98392.47
2019-06-07T15:47:40.620Z,98396.10
2019-06-07T15:50:16.799Z,98391.91
2019-06-07T15:52:50.876Z,98399.24
2019-06-07T15:55:25.827Z,98406.36
2019-06-07T15:57:59.918Z,98403.97
2019-06-07T16:00:35.449Z,98405.59
2019-06-07T16:03:10.001Z,98404.19
2019-06-07T16:05:44.473Z,98408.77
2019-06-07T16:08:18.736Z,98407.87
2019-06-07T16:10:53.178Z,98413.03
2019-06-07T16:13:27.598Z,98416.05
2019-06-07T16:16:01.857Z,98416.28
2019-06-07T16:18:37.657Z,98420.57
2019-06-07T16:21:12.119Z,98418.89
2019-06-07T16:23:46.749Z,98424.52
2019-06-07T16:26:21.323Z,98422.53
2019-06-07T16:28:57.322Z,98421.66
2019-06-07T16:31:31.647Z,98429.29
2019-06-07T16:34:05.916Z,98432.27
2019-06-07T16:36:40.355Z,98433.63
2019-06-07T16:39:14.771Z,98446.17
2019-06-07T16:41:49.427Z,98448.33
2019-06-07T16:44:23.641Z,98453.20
2019-06-07T16:46:57.832Z,98444.44
2019-06-07T16:49:32.510Z,98448.78
2019-06-07T16:52:06.964Z,98449.05
2019-06-07T16:54:41.459Z,98450.38
2019-06-07T16:57:15.691Z,98455.53
2019-06-07T16:59:50.879Z,98462.66
2019-06-07T17:02:25.499Z,98464.80
2019-06-07T17:04:59.689Z,98466.98
2019-06-07T17:07:34.203Z,98462.63
2019-06-07T17:10:09.140Z,98462.86
2019-06-07T17:12:44.827Z,98460.62
2019-06-07T17:15:20.150Z,98464.10
2019-06-07T17:17:54.253Z,98467.67
2019-06-07T17:20:28.865Z,98467.48
2019-06-07T17:23:02.905Z,98467.05
2019-06-07T17:25:37.111Z,98476.70
2019-06-07T17:28:12.264Z,98476.93
2019-06-07T17:30:48.066Z,98481.00
2019-06-07T17:33:22.467Z,98480.45
2019-06-07T17:35:56.405Z,98470.07
2019-06-07T17:38:31.458Z,98472.55
2019-06-07T17:41:05.735Z,98479.90
2019-06-07T17:43:50.458Z,98475.83
2019-06-07T17:46:15.678Z,98481.61
2019-06-07T17:48:49.815Z,98481.09
2019-06-07T17:51:24.157Z,98477.05
2019-06-07T17:53:58.321Z,98479.78
2019-06-07T17:56:32.520Z,98484.17
2019-06-07T17:59:06.643Z,98485.01
2019-06-07T18:01:41.912Z,98482.85
2019-06-07T18:04:17.305Z,98472.52
2019-06-07T18:06:51.578Z,98474.99
2019-06-07T18:09:27.396Z,98473.65
2019-06-07T18:12:01.322Z,98479.72
2019-06-07T18:14:35.715Z,98475.06
2019-06-07T18:17:09.850Z,98471.52
2019-06-07T18:19:45.273Z,98478.38
2019-06-07T18:22:19.517Z,98475.09
2019-06-07T18:24:54.703Z,98474.51
2019-06-07T18:27:28.767Z,98463.31
2019-06-07T18:30:11.442Z,98466.06
2019-06-07T18:32:38.506Z,98468.53
2019-06-07T18:35:12.592Z,98468.80
2019-06-07T18:37:47.054Z,98466.58
2019-06-07T18:40:21.127Z,98469.81
2019-06-07T18:42:55.424Z,98459.89
2019-06-07T18:45:29.581Z,98465.37
2019-06-07T18:48:06.903Z,98466.21
2019-06-07T18:50:41.193Z,98472.78
2019-06-07T18:53:16.300Z,98471.94
2019-06-07T18:55:52.160Z,98475.47
2019-06-07T18:58:26.653Z,98477.65
2019-06-07T19:01:00.801Z,98475.17
2019-06-07T19:03:34.786Z,98475.17
2019-06-07T19:06:09.495Z,98473.23
2019-06-07T19:08:43.480Z,98471.57
2019-06-07T19:11:17.574Z,98471.31
2019-06-07T19:13:52.947Z,98469.10
2019-06-07T19:16:28.141Z,98471.57
2019-06-07T19:19:02.420Z,98466.89
2019-06-07T19:21:36.552Z,98468.84
2019-06-07T19:24:10.613Z,98459.22
2019-06-07T19:26:44.599Z,98453.98
2019-06-07T19:29:18.759Z,98459.77
2019-06-07T19:31:52.996Z,98467.70
2019-06-07T19:34:26.984Z,98463.61
2019-06-07T19:37:02.123Z,98472.91
2019-06-07T19:39:36.747Z,98480.02
2019-06-07T19:42:10.888Z,98478.64
2019-06-07T19:44:54.301Z,98479.75
2019-06-07T19:47:21.080Z,98475.91
2019-06-07T19:49:56.613Z,98478.09
2019-06-07T19:52:31.703Z,98476.15
2019-06-07T19:55:09.892Z,98474.52
2019-06-07T19:57:42.766Z,98472.30
2019-06-07T20:00:17.226Z,98470.73
2019-06-07T20:02:51.415Z,98472.94
2019-06-07T20:05:25.356Z,98465.84
2019-06-07T20:08:00.600Z,98465.12
2019-06-07T20:10:35.339Z,98457.88
2019-06-07T20:13:09.568Z,98467.05
2019-06-07T20:15:44.816Z,98457.64
2019-06-07T20:18:18.672Z,98454.02
2019-06-07T20:20:52.815Z,98460.00
2019-06-07T20:23:29.796Z,98454.54
2019-06-07T20:26:04.798Z,98458.61
2019-06-07T20:28:39.852Z,98458.58
2019-06-07T20:31:14.198Z,98446.28
2019-06-07T20:33:48.506Z,98446.83
2019-06-07T20:36:22.466Z,98451.25
2019-06-07T20:38:57.947Z,98444.44
2019-06-07T20:41:33.535Z,98443.91
2019-06-07T20:44:08.067Z,98441.73
2019-06-07T20:46:45.399Z,98441.35
2019-06-07T20:49:19.791Z,98449.45
2019-06-07T20:51:53.793Z,98452.33
2019-06-07T20:54:27.865Z,98449.19
2019-06-07T20:57:02.665Z,98445.81
2019-06-07T20:59:36.873Z,98446.31
2019-06-07T21:02:11.861Z,98443.09
2019-06-07T21:04:48.206Z,98441.28
2019-06-07T21:07:22.375Z,98438.89
2019-06-07T21:09:56.677Z,98435.53
2019-06-07T21:12:30.619Z,98434.23
2019-06-07T21:15:09.713Z,98437.52
2019-06-07T21:17:41.319Z,98434.18
2019-06-07T21:20:15.807Z,98442.17
2019-06-07T21:22:49.959Z,98438.69
2019-06-07T21:25:24.207Z,98444.11
2019-06-07T21:27:58.306Z,98437.53
2019-06-07T21:30:32.576Z,98431.78
2019-06-07T21:33:07.893Z,98436.21
2019-06-07T21:35:42.134Z,98430.59
2019-06-07T21:38:16.112Z,98436.20
2019-06-07T21:40:50.300Z,98433.76
2019-06-07T21:43:24.517Z,98435.97
2019-06-07T21:46:05.532Z,98438.67
2019-06-07T21:48:34.606Z,98433.76
2019-06-07T21:51:08.692Z,98434.98
2019-06-07T21:53:42.832Z,98428.45
2019-06-07T21:56:17.035Z,98425.50
2019-06-07T21:58:51.643Z,98428.03
2019-06-07T22:01:30.818Z,98424.20
2019-06-07T22:04:05.455Z,98425.83
2019-06-07T22:06:39.748Z,98426.08
2019-06-07T22:09:14.669Z,98431.25
2019-06-07T22:11:48.631Z,98433.11
2019-06-07T22:14:22.832Z,98437.75
2019-06-07T22:16:56.979Z,98440.75
2019-06-07T22:19:31.175Z,98439.64
2019-06-07T22:22:07.150Z,98441.93
2019-06-07T22:24:41.279Z,98445.47
2019-06-07T22:27:15.681Z,98451.82
2019-06-07T22:29:50.246Z,98453.22
2019-06-07T22:32:24.548Z,98455.44
2019-06-07T22:34:58.857Z,98449.20
2019-06-07T22:37:32.985Z,98454.11
2019-06-07T22:40:08.520Z,98448.61
2019-06-07T22:42:42.740Z,98442.59
2019-06-07T22:45:17.156Z,98449.09
2019-06-07T22:47:51.422Z,98443.59
2019-06-07T22:50:26.527Z,98445.99
2019-06-07T22:53:00.478Z,98441.45
2019-06-07T22:55:34.573Z,98435.98
2019-06-07T22:58:09.989Z,98440.75
2019-06-07T23:00:44.175Z,98439.20
2019-06-07T23:03:19.096Z,98437.28
2019-06-07T23:05:53.324Z,98440.89
2019-06-07T23:08:27.229Z,98436.80
2019-06-07T23:11:01.272Z,98443.33
2019-06-07T23:13:35.492Z,98443.08
2019-06-07T23:16:11.381Z,98446.87
2019-06-07T23:18:45.519Z,98453.15
2019-06-07T23:21:20.123Z,98450.38
2019-06-07T23:23:54.613Z,98446.66
2019-06-07T23:26:28.517Z,98447.83
2019-06-07T23:29:02.790Z,98446.10
2019-06-07T23:31:36.890Z,98454.03
2019-06-07T23:34:11.086Z,98453.48
2019-06-07T23:36:45.312Z,98459.05
2019-06-07T23:39:22.032Z,98465.06
2019-06-07T23:41:55.033Z,98462.11
2019-06-07T23:44:29.196Z,98458.23
2019-06-07T23:47:11.189Z,98461.56
2019-06-07T23:49:39.529Z,98461.27
2019-06-07T23:52:13.901Z,98463.14
2019-06-07T23:54:48.063Z,98465.21
2019-06-07T23:57:22.704Z,98469.97
2019-06-07T23:59:56.873Z,98475.25
